sensor_id;sensor_type;location;lat;lon;timestamp;temperature;humidity
76102;SHT30;64830;46.910;6.354;2023-04-06T00:01:08;1.81;59.73
76102;SHT30;64830;46.910;6.354;2023-04-06T00:03:34;1.73;59.69
76102;SHT30;64830;46.910;6.354;2023-04-06T00:05:59;1.71;59.75
76102;SHT30;64830;46.910;6.354;2023-04-06T00:08:25;1.70;60.03
76102;SHT30;64830;46.910;6.354;2023-04-06T00:10:51;1.65;60.04
76102;SHT30;64830;46.910;6.354;2023-04-06T00:13:16;1.61;60.04
76102;SHT30;64830;46.910;6.354;2023-04-06T00:15:42;1.56;60.40
76102;SHT30;64830;46.910;6.354;2023-04-06T00:18:07;1.57;60.23
76102;SHT30;64830;46.910;6.354;2023-04-06T00:20:33;1.54;59.97
76102;SHT30;64830;46.910;6.354;2023-04-06T00:22:58;1.60;60.19
76102;SHT30;64830;46.910;6.354;2023-04-06T00:25:24;1.60;60.49
76102;SHT30;64830;46.910;6.354;2023-04-06T00:27:49;1.56;60.24
76102;SHT30;64830;46.910;6.354;2023-04-06T00:30:15;1.56;60.20
76102;SHT30;64830;46.910;6.354;2023-04-06T00:32:40;1.54;60.38
76102;SHT30;64830;46.910;6.354;2023-04-06T00:35:06;1.53;60.16
76102;SHT30;64830;46.910;6.354;2023-04-06T00:37:32;1.51;60.17
76102;SHT30;64830;46.910;6.354;2023-04-06T00:39:58;1.51;60.58
76102;SHT30;64830;46.910;6.354;2023-04-06T00:42:24;1.53;60.36
76102;SHT30;64830;46.910;6.354;2023-04-06T00:45:00;1.53;60.38
76102;SHT30;64830;46.910;6.354;2023-04-06T00:47:26;1.53;60.50
76102;SHT30;64830;46.910;6.354;2023-04-06T00:49:53;1.50;60.57
76102;SHT30;64830;46.910;6.354;2023-04-06T00:52:19;1.48;60.41
76102;SHT30;64830;46.910;6.354;2023-04-06T00:54:44;1.46;60.23
76102;SHT30;64830;46.910;6.354;2023-04-06T00:57:13;1.43;60.38
76102;SHT30;64830;46.910;6.354;2023-04-06T00:59:39;1.40;60.31
76102;SHT30;64830;46.910;6.354;2023-04-06T01:02:05;1.40;60.24
76102;SHT30;64830;46.910;6.354;2023-04-06T01:04:31;1.39;60.46
76102;SHT30;64830;46.910;6.354;2023-04-06T01:06:57;1.36;60.16
76102;SHT30;64830;46.910;6.354;2023-04-06T01:09:23;1.37;60.53
76102;SHT30;64830;46.910;6.354;2023-04-06T01:11:48;1.33;60.62
76102;SHT30;64830;46.910;6.354;2023-04-06T01:14:14;1.32;61.16
76102;SHT30;64830;46.910;6.354;2023-04-06T01:16:41;1.32;60.97
76102;SHT30;64830;46.910;6.354;2023-04-06T01:19:10;1.29;60.80
76102;SHT30;64830;46.910;6.354;2023-04-06T01:21:37;1.29;61.04
76102;SHT30;64830;46.910;6.354;2023-04-06T01:24:03;1.26;61.27
76102;SHT30;64830;46.910;6.354;2023-04-06T01:26:29;1.19;61.24
76102;SHT30;64830;46.910;6.354;2023-04-06T01:28:55;1.15;61.59
76102;SHT30;64830;46.910;6.354;2023-04-06T01:31:21;1.11;61.72
76102;SHT30;64830;46.910;6.354;2023-04-06T01:33:47;1.05;61.54
76102;SHT30;64830;46.910;6.354;2023-04-06T01:36:13;1.05;61.66
76102;SHT30;64830;46.910;6.354;2023-04-06T01:38:38;1.05;61.61
76102;SHT30;64830;46.910;6.354;2023-04-06T01:41:03;1.02;62.07
76102;SHT30;64830;46.910;6.354;2023-04-06T01:43:29;1.01;61.30
76102;SHT30;64830;46.910;6.354;2023-04-06T01:45:54;1.01;62.17
76102;SHT30;64830;46.910;6.354;2023-04-06T01:48:20;0.96;61.60
76102;SHT30;64830;46.910;6.354;2023-04-06T01:50:46;0.96;61.62
76102;SHT30;64830;46.910;6.354;2023-04-06T01:53:11;0.98;61.99
76102;SHT30;64830;46.910;6.354;2023-04-06T01:55:37;0.94;62.36
76102;SHT30;64830;46.910;6.354;2023-04-06T01:58:02;0.87;62.38
76102;SHT30;64830;46.910;6.354;2023-04-06T02:00:28;0.84;62.55
76102;SHT30;64830;46.910;6.354;2023-04-06T02:02:53;0.83;62.65
76102;SHT30;64830;46.910;6.354;2023-04-06T02:05:19;0.81;63.35
76102;SHT30;64830;46.910;6.354;2023-04-06T02:07:46;0.77;62.56
76102;SHT30;64830;46.910;6.354;2023-04-06T02:10:13;0.77;62.58
76102;SHT30;64830;46.910;6.354;2023-04-06T02:12:39;0.77;62.66
76102;SHT30;64830;46.910;6.354;2023-04-06T02:15:05;0.74;62.71
76102;SHT30;64830;46.910;6.354;2023-04-06T02:17:30;0.73;62.63
76102;SHT30;64830;46.910;6.354;2023-04-06T02:19:55;0.70;62.45
76102;SHT30;64830;46.910;6.354;2023-04-06T02:22:21;0.68;62.76
76102;SHT30;64830;46.910;6.354;2023-04-06T02:24:46;0.68;62.81
76102;SHT30;64830;46.910;6.354;2023-04-06T02:27:14;0.64;63.12
76102;SHT30;64830;46.910;6.354;2023-04-06T02:29:39;0.64;62.85
76102;SHT30;64830;46.910;6.354;2023-04-06T02:32:04;0.66;62.93
76102;SHT30;64830;46.910;6.354;2023-04-06T02:34:30;0.66;63.12
76102;SHT30;64830;46.910;6.354;2023-04-06T02:36:56;0.63;63.03
76102;SHT30;64830;46.910;6.354;2023-04-06T02:39:21;0.64;62.98
76102;SHT30;64830;46.910;6.354;2023-04-06T02:41:46;0.60;63.86
76102;SHT30;64830;46.910;6.354;2023-04-06T02:44:12;0.58;63.79
76102;SHT30;64830;46.910;6.354;2023-04-06T02:46:37;0.56;63.50
76102;SHT30;64830;46.910;6.354;2023-04-06T02:49:03;0.53;63.77
76102;SHT30;64830;46.910;6.354;2023-04-06T02:51:28;0.49;63.96
76102;SHT30;64830;46.910;6.354;2023-04-06T02:53:54;0.46;64.01
76102;SHT30;64830;46.910;6.354;2023-04-06T02:56:19;0.43;64.00
76102;SHT30;64830;46.910;6.354;2023-04-06T02:58:46;0.40;64.24
76102;SHT30;64830;46.910;6.354;2023-04-06T03:01:12;0.42;63.83
76102;SHT30;64830;46.910;6.354;2023-04-06T03:03:37;0.39;64.26
76102;SHT30;64830;46.910;6.354;2023-04-06T03:06:03;0.36;64.25
76102;SHT30;64830;46.910;6.354;2023-04-06T03:08:28;0.33;64.57
76102;SHT30;64830;46.910;6.354;2023-04-06T03:10:54;0.35;64.24
76102;SHT30;64830;46.910;6.354;2023-04-06T03:13:20;0.33;64.47
76102;SHT30;64830;46.910;6.354;2023-04-06T03:15:45;0.33;64.16
76102;SHT30;64830;46.910;6.354;2023-04-06T03:18:10;0.30;64.45
76102;SHT30;64830;46.910;6.354;2023-04-06T03:20:36;0.29;64.19
76102;SHT30;64830;46.910;6.354;2023-04-06T03:23:01;0.26;64.32
76102;SHT30;64830;46.910;6.354;2023-04-06T03:25:27;0.25;64.13
76102;SHT30;64830;46.910;6.354;2023-04-06T03:27:52;0.22;64.89
76102;SHT30;64830;46.910;6.354;2023-04-06T03:30:19;0.18;64.29
76102;SHT30;64830;46.910;6.354;2023-04-06T03:32:44;0.16;64.80
76102;SHT30;64830;46.910;6.354;2023-04-06T03:35:10;0.13;64.66
76102;SHT30;64830;46.910;6.354;2023-04-06T03:37:35;0.08;65.18
76102;SHT30;64830;46.910;6.354;2023-04-06T03:40:02;0.06;64.72
76102;SHT30;64830;46.910;6.354;2023-04-06T03:42:28;0.05;64.79
76102;SHT30;64830;46.910;6.354;2023-04-06T03:44:53;0.05;64.85
76102;SHT30;64830;46.910;6.354;2023-04-06T03:47:18;0.01;65.82
76102;SHT30;64830;46.910;6.354;2023-04-06T03:49:44;-0.06;65.11
76102;SHT30;64830;46.910;6.354;2023-04-06T03:52:10;-0.06;65.42
76102;SHT30;64830;46.910;6.354;2023-04-06T03:54:35;-0.06;65.24
76102;SHT30;64830;46.910;6.354;2023-04-06T03:57:01;-0.09;65.36
76102;SHT30;64830;46.910;6.354;2023-04-06T03:59:26;-0.10;65.48
76102;SHT30;64830;46.910;6.354;2023-04-06T04:01:52;-0.10;65.34
76102;SHT30;64830;46.910;6.354;2023-04-06T04:04:17;-0.10;66.40
76102;SHT30;64830;46.910;6.354;2023-04-06T04:06:43;-0.16;65.84
76102;SHT30;64830;46.910;6.354;2023-04-06T04:09:08;-0.20;65.78
76102;SHT30;64830;46.910;6.354;2023-04-06T04:11:34;-0.22;66.19
76102;SHT30;64830;46.910;6.354;2023-04-06T04:13:59;-0.24;66.41
76102;SHT30;64830;46.910;6.354;2023-04-06T04:16:25;-0.32;66.85
76102;SHT30;64830;46.910;6.354;2023-04-06T04:18:50;-0.36;66.79
76102;SHT30;64830;46.910;6.354;2023-04-06T04:21:15;-0.40;66.62
76102;SHT30;64830;46.910;6.354;2023-04-06T04:23:41;-0.40;66.60
76102;SHT30;64830;46.910;6.354;2023-04-06T04:26:06;-0.37;66.47
76102;SHT30;64830;46.910;6.354;2023-04-06T04:28:32;-0.37;66.55
76102;SHT30;64830;46.910;6.354;2023-04-06T04:30:57;-0.38;67.16
76102;SHT30;64830;46.910;6.354;2023-04-06T04:33:23;-0.37;66.73
76102;SHT30;64830;46.910;6.354;2023-04-06T04:35:48;-0.40;66.48
76102;SHT30;64830;46.910;6.354;2023-04-06T04:38:13;-0.37;66.39
76102;SHT30;64830;46.910;6.354;2023-04-06T04:40:39;-0.36;66.38
76102;SHT30;64830;46.910;6.354;2023-04-06T04:43:05;-0.34;66.40
76102;SHT30;64830;46.910;6.354;2023-04-06T04:45:31;-0.36;67.12
76102;SHT30;64830;46.910;6.354;2023-04-06T04:47:56;-0.38;66.83
76102;SHT30;64830;46.910;6.354;2023-04-06T04:50:21;-0.43;67.26
76102;SHT30;64830;46.910;6.354;2023-04-06T04:52:47;-0.44;67.07
76102;SHT30;64830;46.910;6.354;2023-04-06T04:55:13;-0.45;67.01
76102;SHT30;64830;46.910;6.354;2023-04-06T04:57:39;-0.45;66.94
76102;SHT30;64830;46.910;6.354;2023-04-06T05:00:05;-0.45;67.17
76102;SHT30;64830;46.910;6.354;2023-04-06T05:02:31;-0.51;67.45
76102;SHT30;64830;46.910;6.354;2023-04-06T05:04:56;-0.57;67.65
76102;SHT30;64830;46.910;6.354;2023-04-06T05:07:22;-0.62;67.59
76102;SHT30;64830;46.910;6.354;2023-04-06T05:09:47;-0.61;67.55
76102;SHT30;64830;46.910;6.354;2023-04-06T05:12:13;-0.64;67.63
76102;SHT30;64830;46.910;6.354;2023-04-06T05:14:38;-0.61;67.51
76102;SHT30;64830;46.910;6.354;2023-04-06T05:17:04;-0.61;67.71
76102;SHT30;64830;46.910;6.354;2023-04-06T05:19:30;-0.61;67.39
76102;SHT30;64830;46.910;6.354;2023-04-06T05:21:55;-0.61;67.46
76102;SHT30;64830;46.910;6.354;2023-04-06T05:24:21;-0.58;67.87
76102;SHT30;64830;46.910;6.354;2023-04-06T05:26:47;-0.61;67.59
76102;SHT30;64830;46.910;6.354;2023-04-06T05:29:13;-0.58;68.23
76102;SHT30;64830;46.910;6.354;2023-04-06T05:31:38;-0.58;67.44
76102;SHT30;64830;46.910;6.354;2023-04-06T05:34:04;-0.54;67.95
76102;SHT30;64830;46.910;6.354;2023-04-06T05:36:29;-0.54;67.56
76102;SHT30;64830;46.910;6.354;2023-04-06T05:38:57;-0.51;67.74
76102;SHT30;64830;46.910;6.354;2023-04-06T05:41:23;-0.47;67.38
76102;SHT30;64830;46.910;6.354;2023-04-06T05:43:49;-0.44;67.29
76102;SHT30;64830;46.910;6.354;2023-04-06T05:46:14;-0.38;67.44
76102;SHT30;64830;46.910;6.354;2023-04-06T05:48:40;-0.36;67.19
76102;SHT30;64830;46.910;6.354;2023-04-06T05:51:05;-0.26;67.06
76102;SHT30;64830;46.910;6.354;2023-04-06T05:53:33;-0.20;66.78
76102;SHT30;64830;46.910;6.354;2023-04-06T05:56:02;-0.07;66.62
76102;SHT30;64830;46.910;6.354;2023-04-06T05:58:28;0.02;66.26
76102;SHT30;64830;46.910;6.354;2023-04-06T06:00:58;0.15;65.95
76102;SHT30;64830;46.910;6.354;2023-04-06T06:03:23;0.29;65.74
76102;SHT30;64830;46.910;6.354;2023-04-06T06:05:49;0.45;65.35
76102;SHT30;64830;46.910;6.354;2023-04-06T06:08:14;0.58;64.98
76102;SHT30;64830;46.910;6.354;2023-04-06T06:10:40;0.77;64.66
76102;SHT30;64830;46.910;6.354;2023-04-06T06:13:05;0.98;64.33
76102;SHT30;64830;46.910;6.354;2023-04-06T06:15:31;1.16;63.99
76102;SHT30;64830;46.910;6.354;2023-04-06T06:17:56;1.35;63.47
76102;SHT30;64830;46.910;6.354;2023-04-06T06:20:21;1.48;63.27
76102;SHT30;64830;46.910;6.354;2023-04-06T06:22:47;1.67;62.96
76102;SHT30;64830;46.910;6.354;2023-04-06T06:25:12;1.79;62.13
76102;SHT30;64830;46.910;6.354;2023-04-06T06:27:38;1.88;62.37
76102;SHT30;64830;46.910;6.354;2023-04-06T06:30:04;2.03;62.44
76102;SHT30;64830;46.910;6.354;2023-04-06T06:32:30;2.26;61.76
76102;SHT30;64830;46.910;6.354;2023-04-06T06:34:55;2.41;61.48
76102;SHT30;64830;46.910;6.354;2023-04-06T06:37:21;2.58;60.94
76102;SHT30;64830;46.910;6.354;2023-04-06T06:39:46;2.75;60.65
76102;SHT30;64830;46.910;6.354;2023-04-06T06:42:11;2.78;60.34
76102;SHT30;64830;46.910;6.354;2023-04-06T06:44:37;2.77;60.26
76102;SHT30;64830;46.910;6.354;2023-04-06T06:47:02;2.80;60.46
76102;SHT30;64830;46.910;6.354;2023-04-06T06:49:28;2.82;60.36
76102;SHT30;64830;46.910;6.354;2023-04-06T06:51:53;2.88;60.46
76102;SHT30;64830;46.910;6.354;2023-04-06T06:54:18;2.98;60.29
76102;SHT30;64830;46.910;6.354;2023-04-06T06:56:44;3.03;60.32
76102;SHT30;64830;46.910;6.354;2023-04-06T06:59:10;3.09;59.83
76102;SHT30;64830;46.910;6.354;2023-04-06T07:01:36;3.15;59.66
76102;SHT30;64830;46.910;6.354;2023-04-06T07:04:02;3.03;59.62
76102;SHT30;64830;46.910;6.354;2023-04-06T07:06:27;2.91;59.68
76102;SHT30;64830;46.910;6.354;2023-04-06T07:08:53;2.89;60.41
76102;SHT30;64830;46.910;6.354;2023-04-06T07:11:20;2.98;60.76
76102;SHT30;64830;46.910;6.354;2023-04-06T07:13:46;3.10;60.95
76102;SHT30;64830;46.910;6.354;2023-04-06T07:16:11;3.24;60.55
76102;SHT30;64830;46.910;6.354;2023-04-06T07:18:36;3.34;61.08
76102;SHT30;64830;46.910;6.354;2023-04-06T07:21:02;3.54;60.98
76102;SHT30;64830;46.910;6.354;2023-04-06T07:23:27;3.72;60.55
76102;SHT30;64830;46.910;6.354;2023-04-06T07:25:53;3.89;59.34
76102;SHT30;64830;46.910;6.354;2023-04-06T07:28:19;4.00;58.89
76102;SHT30;64830;46.910;6.354;2023-04-06T07:30:45;4.09;57.89
76102;SHT30;64830;46.910;6.354;2023-04-06T07:33:11;4.11;58.12
76102;SHT30;64830;46.910;6.354;2023-04-06T07:35:36;4.19;57.38
76102;SHT30;64830;46.910;6.354;2023-04-06T07:38:02;4.23;57.59
76102;SHT30;64830;46.910;6.354;2023-04-06T07:40:28;4.29;57.51
76102;SHT30;64830;46.910;6.354;2023-04-06T07:42:54;4.41;57.36
76102;SHT30;64830;46.910;6.354;2023-04-06T07:45:19;4.53;57.30
76102;SHT30;64830;46.910;6.354;2023-04-06T07:47:45;4.65;57.07
76102;SHT30;64830;46.910;6.354;2023-04-06T07:50:11;4.76;56.72
76102;SHT30;64830;46.910;6.354;2023-04-06T07:52:36;4.82;57.18
76102;SHT30;64830;46.910;6.354;2023-04-06T07:55:02;4.96;57.22
76102;SHT30;64830;46.910;6.354;2023-04-06T07:57:27;5.05;57.26
76102;SHT30;64830;46.910;6.354;2023-04-06T07:59:52;5.12;57.12
76102;SHT30;64830;46.910;6.354;2023-04-06T08:02:18;5.20;56.94
76102;SHT30;64830;46.910;6.354;2023-04-06T08:04:44;5.30;56.72
76102;SHT30;64830;46.910;6.354;2023-04-06T08:07:10;5.43;57.21
76102;SHT30;64830;46.910;6.354;2023-04-06T08:09:35;5.63;57.30
76102;SHT30;64830;46.910;6.354;2023-04-06T08:12:00;5.82;57.36
76102;SHT30;64830;46.910;6.354;2023-04-06T08:14:26;5.96;56.27
76102;SHT30;64830;46.910;6.354;2023-04-06T08:16:51;6.07;56.07
76102;SHT30;64830;46.910;6.354;2023-04-06T08:19:17;6.18;55.57
76102;SHT30;64830;46.910;6.354;2023-04-06T08:21:44;6.25;54.75
76102;SHT30;64830;46.910;6.354;2023-04-06T08:24:10;6.28;54.47
76102;SHT30;64830;46.910;6.354;2023-04-06T08:26:36;6.41;54.44
76102;SHT30;64830;46.910;6.354;2023-04-06T08:29:01;6.58;53.48
76102;SHT30;64830;46.910;6.354;2023-04-06T08:31:29;6.73;53.61
76102;SHT30;64830;46.910;6.354;2023-04-06T08:33:54;6.96;53.79
76102;SHT30;64830;46.910;6.354;2023-04-06T08:36:20;7.23;53.25
76102;SHT30;64830;46.910;6.354;2023-04-06T08:38:48;7.40;51.77
76102;SHT30;64830;46.910;6.354;2023-04-06T08:41:15;7.55;52.24
76102;SHT30;64830;46.910;6.354;2023-04-06T08:44:11;7.65;51.34
76102;SHT30;64830;46.910;6.354;2023-04-06T08:46:36;7.76;50.79
76102;SHT30;64830;46.910;6.354;2023-04-06T08:49:02;7.89;49.72
76102;SHT30;64830;46.910;6.354;2023-04-06T08:51:32;7.90;49.52
76102;SHT30;64830;46.910;6.354;2023-04-06T08:53:59;7.91;48.17
76102;SHT30;64830;46.910;6.354;2023-04-06T08:56:26;8.00;48.41
76102;SHT30;64830;46.910;6.354;2023-04-06T08:58:52;8.07;48.00
76102;SHT30;64830;46.910;6.354;2023-04-06T09:01:20;8.21;47.89
76102;SHT30;64830;46.910;6.354;2023-04-06T09:03:48;8.25;46.25
76102;SHT30;64830;46.910;6.354;2023-04-06T09:06:14;8.39;47.07
76102;SHT30;64830;46.910;6.354;2023-04-06T09:08:40;8.53;47.64
76102;SHT30;64830;46.910;6.354;2023-04-06T09:11:07;8.69;44.33
76102;SHT30;64830;46.910;6.354;2023-04-06T09:13:48;8.80;45.35
76102;SHT30;64830;46.910;6.354;2023-04-06T09:16:14;8.86;44.16
76102;SHT30;64830;46.910;6.354;2023-04-06T09:18:40;8.84;45.17
76102;SHT30;64830;46.910;6.354;2023-04-06T09:21:06;8.90;43.57
76102;SHT30;64830;46.910;6.354;2023-04-06T09:23:32;8.94;43.67
76102;SHT30;64830;46.910;6.354;2023-04-06T09:26:15;9.04;41.38
76102;SHT30;64830;46.910;6.354;2023-04-06T09:28:47;8.83;40.09
76102;SHT30;64830;46.910;6.354;2023-04-06T09:31:30;8.72;41.14
76102;SHT30;64830;46.910;6.354;2023-04-06T09:33:58;8.70;42.42
76102;SHT30;64830;46.910;6.354;2023-04-06T09:36:36;8.83;44.11
76102;SHT30;64830;46.910;6.354;2023-04-06T09:39:05;8.99;40.26
76102;SHT30;64830;46.910;6.354;2023-04-06T09:41:32;8.97;41.26
76102;SHT30;64830;46.910;6.354;2023-04-06T09:44:09;9.11;42.39
76102;SHT30;64830;46.910;6.354;2023-04-06T09:46:39;9.20;40.39
76102;SHT30;64830;46.910;6.354;2023-04-06T09:49:06;9.22;42.46
76102;SHT30;64830;46.910;6.354;2023-04-06T09:51:54;9.40;43.17
76102;SHT30;64830;46.910;6.354;2023-04-06T09:54:22;9.62;42.61
76102;SHT30;64830;46.910;6.354;2023-04-06T09:59:40;9.83;40.40
76102;SHT30;64830;46.910;6.354;2023-04-06T10:02:15;9.89;42.31
76102;SHT30;64830;46.910;6.354;2023-04-06T10:04:46;9.91;40.00
76102;SHT30;64830;46.910;6.354;2023-04-06T10:07:14;9.74;39.03
76102;SHT30;64830;46.910;6.354;2023-04-06T10:09:45;9.65;38.94
76102;SHT30;64830;46.910;6.354;2023-04-06T10:12:12;9.53;38.60
76102;SHT30;64830;46.910;6.354;2023-04-06T10:14:39;9.42;40.73
76102;SHT30;64830;46.910;6.354;2023-04-06T10:17:06;9.57;41.20
76102;SHT30;64830;46.910;6.354;2023-04-06T10:19:44;9.79;40.62
76102;SHT30;64830;46.910;6.354;2023-04-06T10:22:18;9.89;41.01
76102;SHT30;64830;46.910;6.354;2023-04-06T10:24:46;9.98;39.01
76102;SHT30;64830;46.910;6.354;2023-04-06T10:27:11;9.93;38.91
76102;SHT30;64830;46.910;6.354;2023-04-06T10:29:47;9.83;39.40
76102;SHT30;64830;46.910;6.354;2023-04-06T10:32:16;9.84;40.13
76102;SHT30;64830;46.910;6.354;2023-04-06T10:34:41;9.91;40.50
76102;SHT30;64830;46.910;6.354;2023-04-06T10:37:13;10.02;41.31
76102;SHT30;64830;46.910;6.354;2023-04-06T10:40:00;10.18;40.28
76102;SHT30;64830;46.910;6.354;2023-04-06T10:42:36;10.21;38.45
76102;SHT30;64830;46.910;6.354;2023-04-06T10:45:06;10.28;36.25
76102;SHT30;64830;46.910;6.354;2023-04-06T10:47:39;10.15;36.54
76102;SHT30;64830;46.910;6.354;2023-04-06T10:50:05;10.19;36.36
76102;SHT30;64830;46.910;6.354;2023-04-06T10:52:30;10.21;39.08
76102;SHT30;64830;46.910;6.354;2023-04-06T10:54:56;10.42;39.21
76102;SHT30;64830;46.910;6.354;2023-04-06T10:57:28;10.65;36.31
76102;SHT30;64830;46.910;6.354;2023-04-06T10:59:54;10.63;37.63
76102;SHT30;64830;46.910;6.354;2023-04-06T11:02:20;10.63;35.29
76102;SHT30;64830;46.910;6.354;2023-04-06T11:04:55;10.50;36.26
76102;SHT30;64830;46.910;6.354;2023-04-06T11:07:23;10.42;35.60
76102;SHT30;64830;46.910;6.354;2023-04-06T11:09:50;10.49;33.41
76102;SHT30;64830;46.910;6.354;2023-04-06T11:12:26;10.44;34.66
76102;SHT30;64830;46.910;6.354;2023-04-06T11:14:59;10.62;36.96
76102;SHT30;64830;46.910;6.354;2023-04-06T11:17:30;10.90;35.75
76102;SHT30;64830;46.910;6.354;2023-04-06T11:19:56;11.00;36.30
76102;SHT30;64830;46.910;6.354;2023-04-06T11:22:22;11.18;35.96
76102;SHT30;64830;46.910;6.354;2023-04-06T11:24:48;11.34;36.58
76102;SHT30;64830;46.910;6.354;2023-04-06T11:27:17;11.36;33.49
76102;SHT30;64830;46.910;6.354;2023-04-06T11:29:43;11.28;34.77
76102;SHT30;64830;46.910;6.354;2023-04-06T11:32:11;11.31;34.53
76102;SHT30;64830;46.910;6.354;2023-04-06T11:34:46;11.39;33.32
76102;SHT30;64830;46.910;6.354;2023-04-06T11:37:13;11.47;33.93
76102;SHT30;64830;46.910;6.354;2023-04-06T11:39:46;11.58;34.97
76102;SHT30;64830;46.910;6.354;2023-04-06T11:42:12;11.72;33.46
76102;SHT30;64830;46.910;6.354;2023-04-06T11:44:43;11.79;34.42
76102;SHT30;64830;46.910;6.354;2023-04-06T11:47:11;11.76;34.50
76102;SHT30;64830;46.910;6.354;2023-04-06T11:49:38;11.91;34.88
76102;SHT30;64830;46.910;6.354;2023-04-06T11:52:18;11.95;34.90
76102;SHT30;64830;46.910;6.354;2023-04-06T11:54:45;11.87;32.00
76102;SHT30;64830;46.910;6.354;2023-04-06T11:57:10;11.72;32.24
76102;SHT30;64830;46.910;6.354;2023-04-06T11:59:36;11.53;32.60
76102;SHT30;64830;46.910;6.354;2023-04-06T12:02:03;11.42;33.44
76102;SHT30;64830;46.910;6.354;2023-04-06T12:04:29;11.38;33.60
76102;SHT30;64830;46.910;6.354;2023-04-06T12:06:55;11.38;35.37
76102;SHT30;64830;46.910;6.354;2023-04-06T12:09:20;11.53;35.89
76102;SHT30;64830;46.910;6.354;2023-04-06T12:11:46;11.59;34.95
76102;SHT30;64830;46.910;6.354;2023-04-06T12:14:12;11.66;34.07
76102;SHT30;64830;46.910;6.354;2023-04-06T12:16:37;11.65;35.19
76102;SHT30;64830;46.910;6.354;2023-04-06T12:19:03;11.63;35.99
76102;SHT30;64830;46.910;6.354;2023-04-06T12:21:30;11.69;35.89
76102;SHT30;64830;46.910;6.354;2023-04-06T12:23:59;11.63;34.42
76102;SHT30;64830;46.910;6.354;2023-04-06T12:26:25;11.45;34.62
76102;SHT30;64830;46.910;6.354;2023-04-06T12:28:51;11.45;35.49
76102;SHT30;64830;46.910;6.354;2023-04-06T12:31:17;11.42;34.48
76102;SHT30;64830;46.910;6.354;2023-04-06T12:33:46;11.28;33.66
76102;SHT30;64830;46.910;6.354;2023-04-06T12:36:16;11.31;35.35
76102;SHT30;64830;46.910;6.354;2023-04-06T12:38:46;11.43;36.87
76102;SHT30;64830;46.910;6.354;2023-04-06T12:41:12;11.53;35.63
76102;SHT30;64830;46.910;6.354;2023-04-06T12:43:41;11.62;35.22
76102;SHT30;64830;46.910;6.354;2023-04-06T12:46:07;11.55;36.03
76102;SHT30;64830;46.910;6.354;2023-04-06T12:48:32;11.55;36.66
76102;SHT30;64830;46.910;6.354;2023-04-06T12:51:00;11.56;35.46
76102;SHT30;64830;46.910;6.354;2023-04-06T12:53:26;11.63;35.32
76102;SHT30;64830;46.910;6.354;2023-04-06T12:55:53;11.65;35.95
76102;SHT30;64830;46.910;6.354;2023-04-06T12:58:18;11.76;34.68
76102;SHT30;64830;46.910;6.354;2023-04-06T13:00:44;11.80;35.66
76102;SHT30;64830;46.910;6.354;2023-04-06T13:03:09;11.94;36.33
76102;SHT30;64830;46.910;6.354;2023-04-06T13:05:35;12.05;35.47
76102;SHT30;64830;46.910;6.354;2023-04-06T13:08:00;12.14;35.89
76102;SHT30;64830;46.910;6.354;2023-04-06T13:10:26;12.24;36.06
76102;SHT30;64830;46.910;6.354;2023-04-06T13:12:52;12.31;36.16
76102;SHT30;64830;46.910;6.354;2023-04-06T13:15:17;12.29;35.66
76102;SHT30;64830;46.910;6.354;2023-04-06T13:17:43;12.22;34.00
76102;SHT30;64830;46.910;6.354;2023-04-06T13:20:09;11.84;34.43
76102;SHT30;64830;46.910;6.354;2023-04-06T13:22:35;11.81;36.38
76102;SHT30;64830;46.910;6.354;2023-04-06T13:25:00;11.91;34.27
76102;SHT30;64830;46.910;6.354;2023-04-06T13:27:25;12.00;33.27
76102;SHT30;64830;46.910;6.354;2023-04-06T13:29:52;12.08;33.47
76102;SHT30;64830;46.910;6.354;2023-04-06T13:32:18;12.20;35.84
76102;SHT30;64830;46.910;6.354;2023-04-06T13:34:43;12.29;32.91
76102;SHT30;64830;46.910;6.354;2023-04-06T13:37:12;12.18;33.87
76102;SHT30;64830;46.910;6.354;2023-04-06T13:39:38;12.17;33.83
76102;SHT30;64830;46.910;6.354;2023-04-06T13:42:03;12.28;34.65
76102;SHT30;64830;46.910;6.354;2023-04-06T13:44:28;12.39;33.71
76102;SHT30;64830;46.910;6.354;2023-04-06T13:46:54;12.45;34.87
76102;SHT30;64830;46.910;6.354;2023-04-06T13:49:20;12.42;35.26
76102;SHT30;64830;46.910;6.354;2023-04-06T13:51:45;12.41;35.91
76102;SHT30;64830;46.910;6.354;2023-04-06T13:54:10;12.52;35.89
76102;SHT30;64830;46.910;6.354;2023-04-06T13:56:36;12.64;36.34
76102;SHT30;64830;46.910;6.354;2023-04-06T13:59:02;12.66;34.75
76102;SHT30;64830;46.910;6.354;2023-04-06T14:01:28;12.59;35.20
76102;SHT30;64830;46.910;6.354;2023-04-06T14:03:53;12.63;35.67
76102;SHT30;64830;46.910;6.354;2023-04-06T14:06:19;12.45;35.39
76102;SHT30;64830;46.910;6.354;2023-04-06T14:08:44;12.38;35.15
76102;SHT30;64830;46.910;6.354;2023-04-06T14:11:12;12.32;36.14
76102;SHT30;64830;46.910;6.354;2023-04-06T14:13:38;12.29;36.07
76102;SHT30;64830;46.910;6.354;2023-04-06T14:16:03;12.25;36.17
76102;SHT30;64830;46.910;6.354;2023-04-06T14:18:29;12.24;36.68
76102;SHT30;64830;46.910;6.354;2023-04-06T14:20:57;12.17;36.65
76102;SHT30;64830;46.910;6.354;2023-04-06T14:23:23;12.14;36.80
76102;SHT30;64830;46.910;6.354;2023-04-06T14:25:51;12.07;36.15
76102;SHT30;64830;46.910;6.354;2023-04-06T14:28:16;11.91;36.52
76102;SHT30;64830;46.910;6.354;2023-04-06T14:30:42;11.81;36.82
76102;SHT30;64830;46.910;6.354;2023-04-06T14:33:08;11.66;35.98
76102;SHT30;64830;46.910;6.354;2023-04-06T14:35:38;11.49;36.94
76102;SHT30;64830;46.910;6.354;2023-04-06T14:38:03;11.45;36.82
76102;SHT30;64830;46.910;6.354;2023-04-06T14:40:28;11.34;36.09
76102;SHT30;64830;46.910;6.354;2023-04-06T14:42:54;11.18;36.86
76102;SHT30;64830;46.910;6.354;2023-04-06T14:45:21;11.11;37.56
76102;SHT30;64830;46.910;6.354;2023-04-06T14:47:47;11.08;37.16
76102;SHT30;64830;46.910;6.354;2023-04-06T14:50:13;11.00;36.58
76102;SHT30;64830;46.910;6.354;2023-04-06T14:52:38;10.94;36.96
76102;SHT30;64830;46.910;6.354;2023-04-06T14:55:04;10.93;36.99
76102;SHT30;64830;46.910;6.354;2023-04-06T14:57:29;10.89;36.26
76102;SHT30;64830;46.910;6.354;2023-04-06T14:59:56;10.81;36.37
76102;SHT30;64830;46.910;6.354;2023-04-06T15:02:21;10.70;35.65
76102;SHT30;64830;46.910;6.354;2023-04-06T15:04:46;10.66;36.66
76102;SHT30;64830;46.910;6.354;2023-04-06T15:07:12;10.65;36.79
76102;SHT30;64830;46.910;6.354;2023-04-06T15:09:37;10.60;37.72
76102;SHT30;64830;46.910;6.354;2023-04-06T15:12:03;10.55;37.48
76102;SHT30;64830;46.910;6.354;2023-04-06T15:14:28;10.39;38.16
76102;SHT30;64830;46.910;6.354;2023-04-06T15:16:55;10.42;37.77
76102;SHT30;64830;46.910;6.354;2023-04-06T15:19:21;10.38;38.43
76102;SHT30;64830;46.910;6.354;2023-04-06T15:21:46;10.45;38.23
76102;SHT30;64830;46.910;6.354;2023-04-06T15:24:11;10.50;38.37
76102;SHT30;64830;46.910;6.354;2023-04-06T15:26:37;10.49;37.62
76102;SHT30;64830;46.910;6.354;2023-04-06T15:29:02;10.49;38.07
76102;SHT30;64830;46.910;6.354;2023-04-06T15:31:28;10.50;38.54
76102;SHT30;64830;46.910;6.354;2023-04-06T15:33:54;10.52;38.84
76102;SHT30;64830;46.910;6.354;2023-04-06T15:36:25;10.52;38.79
76102;SHT30;64830;46.910;6.354;2023-04-06T15:38:51;10.52;38.50